メインページ
METAR-TAF:

METAR-TAF

空港 :

キング・アブドゥルアズィーズ国際空港

ジッダ, サウジアラビア

緯度: 21-42N, 経度: 039-11E, 海抜: 15m

現時点の気象観測

当レポートは29分前の06:00(UTC)に作成
北/北西の風 6kt
気温 27°C
湿度 51%
気圧 1012 hPa
視程10km以上
1,500メートル以下は雲なし、積乱雲なし

METAR: OEJN 040600Z 33006KT CAVOK 27/16 Q1012 NOSIG

時間: 09:29 (06:29 UTC)

予報

当レポートは7時間29分前の23:00(UTC)に作成
予報は04日の 00時(UTC)から 05日の 06時(UTC)まで有効
北/北東の風 10kt
視程10km以上
1,500メートル以下は雲なし、積乱雲なし
04日の 06時(UTC)から 04日の 08時(UTC)まで徐々に
西/北西の風 14kt
04日の 16時(UTC)から 04日の 18時(UTC)まで徐々に
北東の風 8kt

TAF: OEJN 032300Z 0400/0506 03010KT CAVOK BECMG 0406/0408 30014KT BECMG 0416/0418 05008KT

4,000以上の空港の気象観測と天気予報(METAR報とTAF報)

利用可能な観測所は地図上に黄色い丸と赤い丸で示す。

丸の上にカーソルを重ねると観測所名を参照できる。

次にクリックすると気象観測と天気予報を参照できる。

マップの切り替え:黒色「×」印の緑ボタンをクリックして拡大、「-」印の緑ボタンをクリックして縮小、緑色の三角印をクリックして隣りの地図に切り替え


METAR-TAF: